Viamao, Brazil
Current Conditions -  °F | °C
As of 2:00 AM on Monday 24 Nov 2014 (Local Time) from SBPA Reporting Station
Clear Clear  
Wind Chill: 64°   Ceiling: Unl
Heat Index: 64°   Visibility: 6mi
Dew Point: 48°   Wind: 9mph
Humidity: 56%   Direction: 90°E
Pressure: 29.91"   Gusts: NA
Location:  30.09°S, 50.98°W
Report Text: SBPA 240400Z 09008KT CAVOK 18/09 Q1013
Loading
Personal Weather Stations






























Interactive Weather Map New forecast layout! Learn more

10-Day Weather Forecast

Advertisements
Track Severe Weather on mobile